Time;durP1;ratioP1;P1;durP2;ratioP2;P2;SDS_P1;SDS_P2;PMS_P1;PMS_P2;Temp;Humidity;BMP_temperature;BMP_pressure;BME280_temperature;BME280_humidity;BME280_pressure;Samples;Min_cycle;Max_cycle;Signal;HPM_P1;HPM_P2
2022/04/25 00:02:25;;;;;;;8.48;4.60;;;;;;;7.64;81.57;100737.28;5100034;28;20059;-92
2022/04/25 00:04:51;;;;;;;7.33;4.53;;;;;;;7.60;81.34;100728.13;5099667;28;20024;-91
2022/04/25 00:07:16;;;;;;;9.70;4.65;;;;;;;7.54;81.25;100737.91;5088771;28;20087;-90
2022/04/25 00:09:42;;;;;;;11.82;5.38;;;;;;;7.43;81.92;100736.91;5110352;28;20536;-91
2022/04/25 00:12:08;;;;;;;12.27;5.27;;;;;;;7.32;82.15;100737.78;5108243;28;20064;-91
2022/04/25 00:14:33;;;;;;;9.68;4.60;;;;;;;7.25;82.54;100735.25;5090344;28;20078;-91
2022/04/25 00:16:58;;;;;;;11.63;5.30;;;;;;;7.11;83.44;100738.22;5100887;28;20047;-90
2022/04/25 00:19:24;;;;;;;10.23;4.93;;;;;;;7.03;84.07;100741.22;5104818;28;20036;-92
2022/04/25 00:21:51;;;;;;;10.88;5.07;;;;;;;6.92;nan;100742.09;5104877;28;20024;-91
2022/04/25 00:24:17;;;;;;;10.95;5.10;;;;;;;6.84;84.71;100742.44;5085639;28;20024;-91
2022/04/25 00:26:42;;;;;;;9.90;5.40;;;;;;;6.76;85.09;100741.75;5095401;28;20494;-92
2022/04/25 00:29:08;;;;;;;9.77;5.63;;;;;;;6.67;85.47;100746.63;5090022;28;20285;-93
2022/04/25 00:31:33;;;;;;;8.63;5.40;;;;;;;6.63;85.70;100742.81;5098421;28;20467;-92
2022/04/25 00:33:58;;;;;;;10.63;4.97;;;;;;;6.60;85.34;100739.78;5082293;28;20050;-92
2022/04/25 00:36:23;;;;;;;11.00;5.00;;;;;;;6.54;84.92;100743.41;5099705;28;20036;-93
2022/04/25 00:38:49;;;;;;;11.63;5.37;;;;;;;6.48;85.44;100740.63;5094249;28;20028;-94
2022/04/25 00:41:14;;;;;;;11.80;5.20;;;;;;;6.44;85.95;100741.34;5095044;28;20031;-92
2022/04/25 00:43:39;;;;;;;15.90;6.43;;;;;;;6.36;86.22;100737.16;5097472;28;20020;-93
2022/04/25 00:46:06;;;;;;;12.87;5.30;;;;;;;6.30;85.93;100738.09;5097142;28;20117;-93
2022/04/25 00:48:31;;;;;;;9.43;5.73;;;;;;;6.21;87.40;100741.06;5091123;28;20028;-92
2022/04/25 00:50:56;;;;;;;11.07;5.63;;;;;;;6.15;87.48;100731.38;5098707;28;20285;-92
2022/04/25 00:53:22;;;;;;;14.57;5.97;;;;;;;6.11;87.66;100740.06;5099136;28;20023;-91
2022/04/25 00:55:48;;;;;;;10.97;5.57;;;;;;;6.03;87.68;100743.84;5104702;28;20022;-91
2022/04/25 00:58:15;;;;;;;20.80;6.53;;;;;;;5.99;88.76;100735.47;5089786;28;20034;-91
2022/04/25 01:00:41;;;;;;;10.50;5.85;;;;;;;5.97;88.89;100739.41;5073862;28;20020;-92
2022/04/25 01:03:06;;;;;;;12.10;5.80;;;;;;;5.88;89.04;100734.41;5092400;28;20110;-92
2022/04/25 01:05:32;;;;;;;12.00;6.20;;;;;;;5.88;88.95;100737.06;5091540;28;20390;-93
2022/04/25 01:07:59;;;;;;;10.77;5.70;;;;;;;5.83;88.82;100734.31;5093192;28;20074;-91
2022/04/25 01:10:24;;;;;;;9.73;5.78;;;;;;;5.80;89.34;100736.59;5079221;28;20038;-91
2022/04/25 01:12:50;;;;;;;11.17;6.03;;;;;;;5.75;89.64;100737.28;5103061;28;20102;-91
2022/04/25 01:15:15;;;;;;;10.93;6.10;;;;;;;5.73;90.20;100729.53;5107875;28;20024;-92
2022/04/25 01:17:41;;;;;;;13.10;5.87;;;;;;;5.71;90.08;100728.13;5103948;28;20027;-91
2022/04/25 01:20:08;;;;;;;12.30;6.10;;;;;;;5.67;90.86;100730.44;5099590;28;20284;-93
2022/04/25 01:22:53;;;;;;;10.98;6.47;;;;;;;5.64;90.09;100732.75;5095912;28;20051;-93
2022/04/25 01:28:04;;;;;;;12.75;6.50;;;;;;;5.61;91.41;100737.47;5096547;28;20039;-93
2022/04/25 01:30:31;;;;;;;13.33;6.97;;;;;;;5.54;91.57;100728.78;5096697;28;20059;-93
2022/04/25 01:32:57;;;;;;;13.30;6.28;;;;;;;5.51;91.25;100731.88;5096374;28;20032;-93
2022/04/25 01:35:23;;;;;;;13.95;6.72;;;;;;;5.46;92.31;100734.44;5095372;28;20108;-92
2022/04/25 01:37:48;;;;;;;12.90;6.20;;;;;;;5.44;91.96;100736.50;5093173;28;20399;-92
2022/04/25 01:40:13;;;;;;;12.83;6.50;;;;;;;5.41;92.26;100736.94;5094743;28;20161;-92
2022/04/25 01:42:39;;;;;;;13.70;6.63;;;;;;;5.34;92.74;100737.03;5077714;28;20111;-92
2022/04/25 01:45:05;;;;;;;13.60;7.27;;;;;;;5.29;92.81;100740.38;5094007;28;20036;-91
2022/04/25 01:47:30;;;;;;;13.60;7.40;;;;;;;5.28;92.79;100735.28;5093636;28;20451;-91
2022/04/25 01:49:55;;;;;;;12.23;7.00;;;;;;;5.26;93.53;100732.84;5093529;28;20038;-92
2022/04/25 01:52:32;;;;;;;11.23;6.50;;;;;;;5.23;92.80;100743.91;5095829;28;20050;-92
2022/04/25 01:54:59;;;;;;;13.03;6.67;;;;;;;5.23;93.38;100741.25;5094949;28;20047;-92
2022/04/25 01:57:25;;;;;;;13.50;6.60;;;;;;;5.20;93.54;100732.94;5094441;28;20310;-92
2022/04/25 01:59:51;;;;;;;14.85;6.63;;;;;;;5.17;93.46;100736.84;5106952;28;20042;-91
2022/04/25 02:02:17;;;;;;;15.35;7.60;;;;;;;5.18;93.88;100737.66;5112301;28;20011;-92
2022/04/25 02:04:43;;;;;;;16.75;7.57;;;;;;;5.15;94.44;100736.25;5106747;28;20024;-92
2022/04/25 02:07:09;;;;;;;15.53;6.70;;;;;;;5.12;94.21;100740.16;5098155;28;20817;-92
2022/04/25 02:09:36;;;;;;;12.57;6.95;;;;;;;5.10;94.08;100742.22;5093481;28;20024;-92
2022/04/25 02:12:02;;;;;;;16.27;7.85;;;;;;;5.01;94.56;100738.28;5094791;28;20024;-92
2022/04/25 02:14:29;;;;;;;13.88;7.65;;;;;;;4.98;94.65;100736.84;5090055;28;20039;-92
2022/04/25 02:16:54;;;;;;;13.27;7.10;;;;;;;4.94;94.79;100748.16;5093643;28;20035;-92
2022/04/25 02:19:20;;;;;;;14.17;7.97;;;;;;;4.92;95.10;100740.41;5090362;28;20036;-92
2022/04/25 02:21:45;;;;;;;15.37;7.20;;;;;;;4.89;95.17;100734.72;5093796;28;20039;-92
2022/04/25 02:24:10;;;;;;;16.07;7.77;;;;;;;4.88;94.98;100739.22;5093178;28;20024;-92
2022/04/25 02:26:36;;;;;;;13.02;7.47;;;;;;;4.88;94.87;100738.41;5094182;28;20505;-91
2022/04/25 02:29:01;;;;;;;20.43;7.30;;;;;;;4.83;94.69;100739.91;5091431;28;20028;-91
2022/04/25 02:31:26;;;;;;;15.53;7.50;;;;;;;4.78;95.57;100738.91;5093684;28;20036;-92
2022/04/25 02:33:53;;;;;;;17.57;7.73;;;;;;;4.77;94.91;100739.94;5093207;28;20040;-92
2022/04/25 02:36:18;;;;;;;17.88;8.82;;;;;;;4.72;95.66;100735.31;5092439;28;20103;-91
2022/04/25 02:38:43;;;;;;;16.83;7.97;;;;;;;4.74;95.84;100737.75;5092785;28;20165;-91
2022/04/25 02:41:09;;;;;;;16.90;8.00;;;;;;;4.72;95.99;100730.00;5094398;28;20028;-91
2022/04/25 02:43:38;;;;;;;14.07;7.80;;;;;;;4.71;95.96;100741.66;5093458;28;20047;-91
2022/04/25 02:46:06;;;;;;;19.63;8.40;;;;;;;4.66;96.73;100733.53;5093963;28;20020;-91
2022/04/25 02:48:31;;;;;;;14.98;7.72;;;;;;;4.66;96.54;100738.84;5091600;28;20038;-91
2022/04/25 02:50:57;;;;;;;12.05;7.50;;;;;;;4.59;96.44;100736.25;5093198;28;20103;-91
2022/04/25 02:53:24;;;;;;;21.17;8.57;;;;;;;4.55;96.17;100738.53;5074114;28;20031;-91
2022/04/25 02:55:53;;;;;;;14.55;8.25;;;;;;;4.48;96.66;100740.44;5092864;28;20028;-91
2022/04/25 02:58:20;;;;;;;16.23;8.53;;;;;;;4.45;97.15;100737.44;5074713;28;20123;-92
2022/04/25 03:00:46;;;;;;;16.33;8.43;;;;;;;4.41;97.53;100737.06;5093474;28;20298;-91
2022/04/25 03:03:15;;;;;;;19.35;9.20;;;;;;;4.37;97.79;100739.34;5093212;28;20478;-91
2022/04/25 03:05:46;;;;;;;16.73;8.02;;;;;;;4.37;97.17;100738.53;5093675;28;20028;-92
2022/04/25 03:08:12;;;;;;;18.40;8.63;;;;;;;4.34;97.59;100738.94;5092698;28;20467;-91
2022/04/25 03:10:40;;;;;;;14.88;8.27;;;;;;;4.32;97.13;100739.19;5093350;28;20031;-93
2022/04/25 03:13:08;;;;;;;17.63;8.05;;;;;;;4.31;97.22;100739.38;5092550;28;20024;-93
2022/04/25 03:15:38;;;;;;;17.58;8.95;;;;;;;4.29;97.28;100736.97;5093478;28;20024;-93
2022/04/25 03:18:05;;;;;;;17.83;8.07;;;;;;;4.30;97.80;100741.25;5089216;28;20024;-92
2022/04/25 03:20:32;;;;;;;16.77;8.43;;;;;;;4.30;98.02;100732.44;5092477;28;20343;-93
2022/04/25 03:22:58;;;;;;;24.00;8.40;;;;;;;4.25;97.86;100733.09;5075205;28;20020;-92
2022/04/25 03:25:23;;;;;;;19.00;8.38;;;;;;;4.20;97.78;100732.97;5093706;28;20059;-93
2022/04/25 03:27:48;;;;;;;16.60;8.60;;;;;;;4.16;98.10;100737.09;5092048;28;20036;-93
2022/04/25 03:30:13;;;;;;;19.40;7.90;;;;;;;4.14;98.13;100733.84;5093210;28;20042;-93
2022/04/25 03:32:45;;;;;;;20.20;9.38;;;;;;;4.13;99.11;100742.81;5093977;28;20509;-92
2022/04/25 03:35:11;;;;;;;21.03;9.47;;;;;;;4.13;98.85;100742.81;5094770;28;20521;-90
2022/04/25 03:37:37;;;;;;;16.30;8.00;;;;;;;4.05;97.83;100742.03;5079675;28;20099;-94
2022/04/25 03:40:04;;;;;;;14.35;8.27;;;;;;;4.02;97.86;100739.03;5070006;28;20059;-91
2022/04/25 03:42:30;;;;;;;15.95;8.00;;;;;;;3.96;97.58;100748.66;5095777;28;20024;-92
2022/04/25 03:44:55;;;;;;;17.40;8.73;;;;;;;3.94;97.89;100745.41;5098226;28;20605;-91
2022/04/25 03:47:20;;;;;;;18.17;8.90;;;;;;;3.92;98.01;100747.47;5100258;28;20027;-91
2022/04/25 03:49:46;;;;;;;18.63;8.93;;;;;;;3.85;98.37;100746.69;5103788;28;20123;-90
2022/04/25 03:52:11;;;;;;;23.50;10.30;;;;;;;3.85;98.78;100742.22;5098755;28;20427;-92
2022/04/25 03:57:20;;;;;;;17.90;9.20;;;;;;;3.81;99.42;100750.81;5111112;28;20073;-93
2022/04/25 03:59:46;;;;;;;20.75;9.45;;;;;;;3.81;99.45;100750.81;5100191;28;20032;-94
2022/04/25 04:02:11;;;;;;;18.50;9.27;;;;;;;3.80;99.76;100749.97;5079138;28;20024;-93
2022/04/25 04:04:36;;;;;;;16.43;9.20;;;;;;;3.79;99.94;100743.88;5080259;28;20040;-95
2022/04/25 04:07:02;;;;;;;18.27;9.00;;;;;;;3.76;99.80;100754.91;5081872;28;20029;-94
2022/04/25 04:09:46;;;;;;;21.90;9.27;;;;;;;3.73;99.84;100749.22;5096552;28;20039;-93
2022/04/25 04:12:24;;;;;;;24.13;9.60;;;;;;;3.70;100.00;100749.66;5102823;28;20469;-93
2022/04/25 04:14:49;;;;;;;20.05;10.02;;;;;;;3.72;100.00;100751.06;5097138;28;20047;-93
2022/04/25 04:17:17;;;;;;;14.80;8.90;;;;;;;3.71;100.00;100751.28;5091484;28;20478;-93
2022/04/25 04:19:43;;;;;;;16.58;10.18;;;;;;;3.70;100.00;100762.91;5083310;28;20024;-94
2022/04/25 04:22:08;;;;;;;20.67;10.80;;;;;;;3.69;100.00;100764.72;5084969;28;20059;-94
2022/04/25 04:24:36;;;;;;;21.63;10.57;;;;;;;3.71;100.00;100767.19;5094862;28;20097;-90
2022/04/25 04:27:04;;;;;;;22.00;10.13;;;;;;;3.71;100.00;100760.03;5075774;28;20038;-92
2022/04/25 04:29:32;;;;;;;19.50;10.85;;;;;;;3.71;100.00;100762.69;5091492;28;20033;-91
2022/04/25 04:31:59;;;;;;;22.98;11.15;;;;;;;3.69;100.00;100761.28;5093250;28;20028;-91
2022/04/25 04:34:25;;;;;;;21.52;11.10;;;;;;;3.67;100.00;100764.13;5095047;28;20034;-91
2022/04/25 04:36:51;;;;;;;23.95;10.43;;;;;;;3.70;100.00;100769.00;5109485;28;20016;-90
2022/04/25 04:39:17;;;;;;;21.27;10.65;;;;;;;3.69;100.00;100769.22;5112192;27;20046;-92
2022/04/25 04:41:42;;;;;;;20.30;10.83;;;;;;;3.70;100.00;100779.59;5096155;28;20083;-93
2022/04/25 04:44:07;;;;;;;17.63;10.23;;;;;;;3.71;100.00;100777.78;5118384;28;20040;-92
2022/04/25 04:46:32;;;;;;;24.35;11.50;;;;;;;3.72;100.00;100784.72;5121172;28;20019;-93
2022/04/25 04:48:58;;;;;;;28.23;12.03;;;;;;;3.73;100.00;100781.84;5098116;28;20020;-92
2022/04/25 04:51:23;;;;;;;19.93;11.60;;;;;;;3.77;100.00;100779.56;5100854;28;20844;-93
2022/04/25 04:53:48;;;;;;;27.03;12.40;;;;;;;3.78;100.00;100779.38;5079612;28;20024;-93
2022/04/25 04:56:14;;;;;;;22.23;11.70;;;;;;;3.85;100.00;100791.75;5101518;28;20095;-94
2022/04/25 04:58:39;;;;;;;29.63;13.13;;;;;;;3.94;100.00;100785.97;5076412;28;20029;-94
2022/04/25 05:01:05;;;;;;;23.97;11.70;;;;;;;4.11;100.00;100801.34;5083468;28;20016;-95
2022/04/25 05:03:31;;;;;;;26.80;12.50;;;;;;;4.31;100.00;100803.06;5101437;28;20054;-94
2022/04/25 05:05:56;;;;;;;25.42;13.30;;;;;;;4.51;100.00;100803.69;5118069;28;20028;-93
2022/04/25 05:08:21;;;;;;;25.30;13.27;;;;;;;4.68;100.00;100801.31;5113729;28;20029;-93
2022/04/25 05:10:48;;;;;;;26.23;12.87;;;;;;;4.83;100.00;100813.41;5097130;28;20059;-94
2022/04/25 05:13:15;;;;;;;28.17;12.32;;;;;;;4.96;100.00;100815.13;5114015;28;20028;-93
2022/04/25 05:15:40;;;;;;;24.00;12.20;;;;;;;5.13;100.00;100813.50;5117409;28;20054;-94
2022/04/25 05:18:05;;;;;;;25.03;12.17;;;;;;;5.26;100.00;100823.19;5116185;28;20016;-94
2022/04/25 05:20:31;;;;;;;22.35;12.18;;;;;;;5.33;100.00;100822.28;5107784;28;20031;-94
2022/04/25 05:22:56;;;;;;;23.30;12.17;;;;;;;5.43;100.00;100817.25;5106089;28;20023;-93
2022/04/25 05:25:24;;;;;;;26.03;12.57;;;;;;;5.54;100.00;100827.13;5105170;28;20502;-95
2022/04/25 05:27:52;;;;;;;24.08;11.85;;;;;;;5.66;100.00;100821.06;5109010;28;20028;-94
2022/04/25 05:30:19;;;;;;;25.38;11.73;;;;;;;5.77;100.00;100825.63;5112936;28;20092;-93
2022/04/25 05:32:55;;;;;;;24.23;11.33;;;;;;;5.83;99.69;100821.25;5093596;28;20028;-92
2022/04/25 05:35:26;;;;;;;21.73;11.70;;;;;;;5.85;99.65;100819.97;5104459;28;20830;-92
2022/04/25 05:37:52;;;;;;;23.50;11.68;;;;;;;5.91;99.44;100834.22;5102572;28;20043;-94
2022/04/25 05:40:18;;;;;;;24.90;12.98;;;;;;;6.00;99.33;100835.56;5084453;28;20040;-94
2022/04/25 05:42:44;;;;;;;22.85;11.80;;;;;;;6.08;99.11;100837.06;5099025;28;20026;-95
2022/04/25 05:45:14;;;;;;;24.02;11.80;;;;;;;6.15;98.30;100837.78;5103214;28;20058;-95
2022/04/25 05:47:40;;;;;;;19.30;11.52;;;;;;;6.18;98.53;100839.19;5106092;28;20028;-94
2022/04/25 05:52:52;;;;;;;22.80;11.82;;;;;;;6.28;98.38;100857.25;5108516;28;20050;-93
2022/04/25 05:55:18;;;;;;;26.50;12.23;;;;;;;6.33;97.84;100846.75;5096673;28;20433;-93
2022/04/25 05:57:43;;;;;;;23.35;12.48;;;;;;;6.40;97.75;100852.75;5099868;28;20029;-93
2022/04/25 06:00:10;;;;;;;24.73;12.40;;;;;;;6.48;97.42;100859.63;5101837;28;20023;-95
2022/04/25 06:02:37;;;;;;;23.05;13.40;;;;;;;6.52;97.53;100855.44;5105377;28;20057;-94
2022/04/25 06:05:03;;;;;;;24.42;12.02;;;;;;;6.62;97.43;100862.84;5112772;28;20026;-94
2022/04/25 06:07:28;;;;;;;22.63;13.13;;;;;;;6.72;96.96;100862.28;5105052;28;20073;-95
2022/04/25 06:09:53;;;;;;;23.50;12.77;;;;;;;6.79;95.98;100866.47;5096714;28;20032;-92
2022/04/25 06:12:18;;;;;;;20.53;13.07;;;;;;;6.92;96.29;100865.41;5094669;28;20051;-94
2022/04/25 06:14:44;;;;;;;23.83;13.13;;;;;;;6.97;95.33;100865.53;5095415;28;20158;-95
2022/04/25 06:17:13;;;;;;;24.73;12.48;;;;;;;7.09;95.66;100870.88;5080055;28;20517;-94
2022/04/25 06:19:38;;;;;;;24.30;11.83;;;;;;;7.26;94.82;100868.28;5095045;28;20035;-93
2022/04/25 06:22:04;;;;;;;28.70;13.57;;;;;;;7.36;94.60;100867.69;5094882;28;20024;-93
2022/04/25 06:24:29;;;;;;;27.40;12.30;;;;;;;7.42;94.44;100863.25;5094673;28;20028;-93
2022/04/25 06:26:55;;;;;;;24.83;13.33;;;;;;;7.46;93.72;100866.28;5102069;28;20127;-94
2022/04/25 06:29:21;;;;;;;24.42;13.13;;;;;;;7.52;93.98;100866.16;5101518;28;20306;-93
2022/04/25 06:31:46;;;;;;;20.52;13.45;;;;;;;7.70;93.30;100862.50;5104346;28;20028;-93
2022/04/25 06:34:12;;;;;;;20.97;12.80;;;;;;;8.03;92.27;100866.28;5099877;28;20219;-94
2022/04/25 06:36:37;;;;;;;22.87;13.03;;;;;;;8.26;91.02;100867.22;5106178;28;20035;-93
2022/04/25 06:39:03;;;;;;;22.77;12.57;;;;;;;8.44;89.99;100876.88;5108344;28;20028;-92
2022/04/25 06:41:30;;;;;;;23.02;13.68;;;;;;;8.64;89.21;100876.41;5104650;28;20028;-92
2022/04/25 06:43:55;;;;;;;24.75;12.95;;;;;;;8.83;88.25;100880.72;5096796;28;20028;-94
2022/04/25 06:46:21;;;;;;;23.53;11.97;;;;;;;8.88;87.11;100881.59;5097272;28;20016;-93
2022/04/25 06:49:19;;;;;;;22.40;12.63;;;;;;;8.93;87.04;100886.19;5094432;28;20035;-92
2022/04/25 06:51:31;;;;;;;20.23;11.82;;;;;;;9.00;86.46;100889.50;5092532;28;20024;-93
2022/04/25 06:53:59;;;;;;;21.57;12.90;;;;;;;9.04;85.80;100895.16;5062463;28;20541;-92
2022/04/25 06:56:24;;;;;;;23.58;12.77;;;;;;;8.94;85.16;100885.97;5057257;28;20062;-92
2022/04/25 06:58:49;;;;;;;25.07;13.50;;;;;;;8.84;85.94;100890.34;5075232;28;20025;-92
2022/04/25 07:01:15;;;;;;;19.43;13.00;;;;;;;8.75;86.66;100884.59;5082005;28;20421;-92
2022/04/25 07:03:40;;;;;;;27.53;14.27;;;;;;;8.72;86.98;100893.09;5081360;28;20044;-91
2022/04/25 07:06:06;;;;;;;21.10;12.17;;;;;;;8.63;86.90;100890.81;5096799;28;20540;-93
2022/04/25 07:08:33;;;;;;;23.93;12.87;;;;;;;8.55;87.90;100893.09;5094357;28;20028;-92
2022/04/25 07:10:58;;;;;;;19.13;12.35;;;;;;;8.63;87.05;100893.50;5093356;28;20491;-93
2022/04/25 07:13:24;;;;;;;22.85;13.45;;;;;;;8.68;87.05;100899.97;5091803;28;20043;-93
2022/04/25 07:15:50;;;;;;;23.27;11.83;;;;;;;8.73;86.42;100894.72;5092561;28;20016;-92
2022/04/25 07:18:16;;;;;;;21.27;12.70;;;;;;;8.71;87.38;100907.50;5093521;28;20081;-93
2022/04/25 07:20:41;;;;;;;22.23;13.87;;;;;;;8.64;86.53;100905.81;5093747;28;20425;-94
2022/04/25 07:28:49;;;;;;;20.80;13.48;;;;;;;8.43;86.85;100904.63;5093980;28;20274;-91
2022/04/25 07:31:18;;;;;;;24.75;14.43;;;;;;;8.37;88.64;100907.47;5091240;28;20024;-92
2022/04/25 07:33:43;;;;;;;24.30;13.90;;;;;;;8.32;88.03;100908.16;5093803;28;20043;-94
2022/04/25 07:36:17;;;;;;;21.83;14.23;;;;;;;8.30;88.19;100908.41;5095247;28;20356;-93
2022/04/25 07:38:43;;;;;;;22.38;13.55;;;;;;;8.27;88.47;100916.91;5094982;28;20527;-93
2022/04/25 07:41:08;;;;;;;29.07;13.87;;;;;;;8.22;89.32;100918.69;5094690;28;20078;-93
2022/04/25 07:43:34;;;;;;;24.10;14.30;;;;;;;8.22;89.08;100924.00;5097232;28;20067;-94
2022/04/25 07:46:00;;;;;;;23.90;13.90;;;;;;;8.21;89.33;100919.72;5087816;28;20496;-90
2022/04/25 07:48:26;;;;;;;23.10;13.80;;;;;;;8.22;89.30;100927.47;5102026;28;20053;-90
2022/04/25 07:50:51;;;;;;;23.27;14.88;;;;;;;8.22;89.67;100929.34;5093112;28;20165;-92
2022/04/25 07:53:16;;;;;;;24.93;14.27;;;;;;;8.20;89.51;100926.94;5079139;28;20044;-92
2022/04/25 07:55:42;;;;;;;25.30;15.30;;;;;;;8.17;90.55;100936.22;5087546;28;20024;-91
2022/04/25 07:58:08;;;;;;;28.27;14.97;;;;;;;8.15;91.15;100929.50;5075904;28;20056;-91
2022/04/25 08:00:35;;;;;;;22.08;14.38;;;;;;;8.09;90.33;100933.94;5090682;28;20016;-92
2022/04/25 08:03:00;;;;;;;29.27;16.27;;;;;;;7.94;92.57;100928.31;5089065;28;20020;-92
2022/04/25 08:05:26;;;;;;;24.33;15.83;;;;;;;7.77;94.77;100934.38;5091175;28;20694;-91
2022/04/25 08:07:51;;;;;;;28.15;16.65;;;;;;;7.75;95.60;100938.31;5093122;28;20059;-92
2022/04/25 08:10:17;;;;;;;29.50;16.50;;;;;;;7.58;96.91;100931.06;5073471;28;20042;-91
2022/04/25 08:18:13;;;;;;;30.60;17.50;;;;;;;7.56;99.98;100946.47;5088268;28;20453;-88
2022/04/25 08:20:39;;;;;;;33.20;19.07;;;;;;;7.59;100.00;100954.03;5072129;28;20980;-89
2022/04/25 08:23:09;;;;;;;38.10;19.48;;;;;;;7.57;100.00;100954.28;5089704;28;20065;-88
2022/04/25 08:25:36;;;;;;;34.97;19.63;;;;;;;7.50;100.00;100958.91;5070036;28;20040;-90
2022/04/25 08:28:02;;;;;;;37.55;20.58;;;;;;;7.47;100.00;100962.03;5091673;28;20028;-88
2022/04/25 08:30:30;;;;;;;38.83;20.40;;;;;;;7.47;100.00;100969.22;5090321;28;20024;-87
2022/04/25 08:32:56;;;;;;;37.63;20.90;;;;;;;7.41;100.00;100960.28;5088701;28;20032;-87
2022/04/25 08:35:22;;;;;;;38.23;20.67;;;;;;;7.33;100.00;100969.44;5070340;28;20031;-88
2022/04/25 08:37:48;;;;;;;37.33;20.98;;;;;;;7.25;100.00;100972.47;5091429;28;20035;-89
2022/04/25 08:40:13;;;;;;;38.50;20.33;;;;;;;7.15;100.00;100969.56;5090200;28;20032;-88
2022/04/25 08:42:39;;;;;;;36.90;19.85;;;;;;;7.10;100.00;100971.09;5090519;28;20077;-88
2022/04/25 08:45:06;;;;;;;34.57;19.77;;;;;;;7.09;100.00;100981.97;5088673;28;20076;-90
2022/04/25 08:47:36;;;;;;;35.35;20.60;;;;;;;7.13;100.00;100978.59;5075722;28;20107;-90
2022/04/25 08:50:02;;;;;;;42.40;21.83;;;;;;;7.09;100.00;100985.47;5071347;28;20036;-89
2022/04/25 08:52:29;;;;;;;44.20;21.85;;;;;;;7.09;100.00;100982.78;5082847;28;20399;-89
2022/04/25 08:55:00;;;;;;;36.70;21.55;;;;;;;7.16;100.00;100981.84;5055182;28;20031;-91
2022/04/25 08:57:31;;;;;;;46.25;22.58;;;;;;;7.22;100.00;100988.94;5097033;28;20032;-90
2022/04/25 08:59:57;;;;;;;40.60;22.00;;;;;;;7.28;100.00;100988.81;5084848;28;20028;-88
2022/04/25 09:02:23;;;;;;;41.83;22.30;;;;;;;7.37;100.00;100988.47;5101404;28;20309;-89
2022/04/25 09:04:51;;;;;;;40.20;22.40;;;;;;;7.33;100.00;100989.97;5098961;28;20032;-89
2022/04/25 09:07:17;;;;;;;42.05;23.08;;;;;;;7.31;100.00;100998.19;5100664;28;20051;-89
2022/04/25 09:09:43;;;;;;;43.10;22.75;;;;;;;7.25;100.00;100994.59;5097523;28;20054;-90
2022/04/25 09:12:11;;;;;;;47.92;23.40;;;;;;;7.27;100.00;100999.72;5085771;28;20027;-90
2022/04/25 09:14:38;;;;;;;50.05;24.40;;;;;;;7.27;100.00;101013.84;5099135;28;20525;-90
2022/04/25 09:17:04;;;;;;;47.67;24.03;;;;;;;7.33;100.00;101011.31;5096542;28;20032;-90
2022/04/25 09:19:32;;;;;;;45.80;22.77;;;;;;;7.34;100.00;101008.41;5103441;28;20290;-89
2022/04/25 09:21:58;;;;;;;45.95;24.25;;;;;;;7.39;100.00;101011.19;5091768;28;20020;-89
2022/04/25 09:24:35;;;;;;;52.60;26.10;;;;;;;7.45;100.00;101016.66;5099125;28;20016;-88
2022/04/25 09:27:07;;;;;;;48.33;24.20;;;;;;;7.49;100.00;101020.44;5079371;28;20031;-90
2022/04/25 09:29:34;;;;;;;50.53;24.83;;;;;;;7.58;100.00;101019.06;5097260;28;20399;-90
2022/04/25 09:37:40;;;;;;;41.35;22.50;;;;;;;7.67;100.00;101025.66;5095235;28;20613;-92
2022/04/25 09:40:06;;;;;;;36.22;22.02;;;;;;;7.50;100.00;101012.22;5082653;28;20029;-92
2022/04/25 09:42:33;;;;;;;37.40;20.92;;;;;;;7.42;100.00;101016.06;5080968;28;20024;-92
2022/04/25 09:45:01;;;;;;;36.78;21.27;;;;;;;7.51;100.00;101026.38;5075890;28;20080;-91
2022/04/25 09:47:30;;;;;;;38.80;23.02;;;;;;;7.47;100.00;101026.03;5071107;28;20035;-91
2022/04/25 09:50:04;;;;;;;35.53;17.83;;;;;;;7.48;100.00;101026.84;5096969;28;20470;-91
2022/04/25 09:52:31;;;;;;;36.90;20.47;;;;;;;7.47;100.00;101027.91;5099315;28;20028;-91
2022/04/25 09:55:09;;;;;;;30.77;17.30;;;;;;;7.46;100.00;101031.59;5099025;28;20337;-91
2022/04/25 09:57:35;;;;;;;34.70;20.02;;;;;;;7.50;100.00;101033.56;5103045;28;20406;-91
2022/04/25 10:00:01;;;;;;;31.13;18.57;;;;;;;7.47;100.00;101035.91;5085166;28;20110;-91
2022/04/25 10:02:27;;;;;;;36.00;19.60;;;;;;;7.52;100.00;101036.00;5107479;28;20298;-92
2022/04/25 10:05:14;;;;;;;35.88;21.73;;;;;;;7.55;100.00;101043.53;5106931;28;20024;-92
2022/04/25 10:07:40;;;;;;;29.07;16.80;;;;;;;7.50;100.00;101046.91;5109914;28;20027;-91
2022/04/25 10:10:06;;;;;;;32.93;19.23;;;;;;;7.54;100.00;101040.06;5111532;28;20481;-92
2022/04/25 10:12:36;;;;;;;36.40;20.15;;;;;;;7.59;100.00;101047.38;5103641;28;20099;-91
2022/04/25 10:15:04;;;;;;;34.45;20.17;;;;;;;7.58;100.00;101043.06;5102460;28;20035;-92
2022/04/25 10:17:31;;;;;;;33.80;19.80;;;;;;;7.72;100.00;101049.00;5103643;28;20051;-91
2022/04/25 10:20:00;;;;;;;37.75;21.33;;;;;;;7.84;100.00;101051.66;5096231;28;20520;-92
2022/04/25 10:22:26;;;;;;;35.42;20.48;;;;;;;7.94;100.00;101059.06;5076958;28;20039;-92
2022/04/25 10:24:51;;;;;;;34.87;20.57;;;;;;;7.98;100.00;101055.69;5094380;28;20032;-93
2022/04/25 10:27:24;;;;;;;36.93;20.37;;;;;;;8.04;100.00;101060.06;5094297;28;20042;-93
2022/04/25 10:29:53;;;;;;;32.75;20.10;;;;;;;8.01;100.00;101065.91;5095174;28;20499;-92
2022/04/25 10:32:23;;;;;;;33.05;21.02;;;;;;;8.07;100.00;101065.97;5095816;28;20024;-92
2022/04/25 10:34:56;;;;;;;31.83;19.77;;;;;;;8.09;100.00;101067.38;5074605;22;20123;-92
2022/04/25 10:37:40;;;;;;;33.90;20.35;;;;;;;8.06;100.00;101069.69;5055987;28;20073;-92
2022/04/25 10:40:07;;;;;;;36.45;21.25;;;;;;;8.12;100.00;101074.09;5056470;28;20056;-91
2022/04/25 10:45:01;;;;;;;34.03;20.33;;;;;;;8.11;100.00;101075.16;5358415;22;20091;-91
2022/04/25 10:47:27;;;;;;;32.97;20.15;;;;;;;8.05;100.00;101071.56;5044573;28;20491;-91
2022/04/25 10:49:56;;;;;;;34.37;20.97;;;;;;;8.03;100.00;101079.00;5069851;28;20025;-91
2022/04/25 10:55:31;;;;;;;32.95;17.90;;;;;;;7.97;100.00;101088.75;5055168;28;20018;-90
2022/04/25 10:58:02;;;;;;;31.90;18.70;;;;;;;7.97;100.00;101083.41;5055901;28;20097;-90
2022/04/25 11:00:37;;;;;;;33.13;19.35;;;;;;;8.01;100.00;101092.59;5054478;28;20101;-90
2022/04/25 11:03:04;;;;;;;34.10;19.10;;;;;;;8.06;100.00;101088.38;5037429;28;20060;-91
2022/04/25 11:05:29;;;;;;;30.92;17.88;;;;;;;8.07;100.00;101090.00;5053872;28;20040;-91
2022/04/25 11:08:20;;;;;;;33.77;18.93;;;;;;;7.98;100.00;101093.03;5053969;28;20017;-91
2022/04/25 11:10:52;;;;;;;34.47;19.35;;;;;;;7.96;100.00;101095.13;5038164;28;20022;-92
2022/04/25 11:13:18;;;;;;;33.85;19.70;;;;;;;7.93;100.00;101079.59;5283088;22;20106;-90
2022/04/25 11:16:21;;;;;;;33.80;20.67;;;;;;;8.13;100.00;101103.22;5069804;28;20074;-91
2022/04/25 11:19:19;;;;;;;34.77;19.80;;;;;;;8.25;100.00;101108.53;5052994;28;20305;-91
2022/04/25 11:21:55;;;;;;;37.42;20.98;;;;;;;8.22;100.00;101103.66;5070062;28;20020;-91
2022/04/25 11:24:34;;;;;;;35.08;19.98;;;;;;;8.30;100.00;101110.53;5070159;28;20043;-91
2022/04/25 11:27:04;;;;;;;38.83;21.15;;;;;;;8.38;100.00;101112.03;5055661;28;20483;-92
2022/04/25 11:29:29;;;;;;;34.83;20.35;;;;;;;8.46;100.00;101109.78;5074794;28;20021;-90
2022/04/25 11:32:35;;;;;;;40.03;21.67;;;;;;;8.64;100.00;101110.69;5073400;28;20384;-91
2022/04/25 11:35:02;;;;;;;36.88;20.10;;;;;;;8.80;100.00;101111.78;5073959;28;20072;-91
2022/04/25 11:37:29;;;;;;;37.72;20.80;;;;;;;8.97;100.00;101113.69;5071584;28;20033;-90
2022/04/25 11:40:04;;;;;;;37.70;21.50;;;;;;;9.09;100.00;101117.94;5071589;28;20031;-90
2022/04/25 11:42:34;;;;;;;41.30;21.80;;;;;;;9.18;100.00;101120.22;5070950;28;20041;-91
2022/04/25 11:45:01;;;;;;;35.90;20.75;;;;;;;9.18;100.00;101122.91;5071116;28;20024;-92
2022/04/25 11:47:26;;;;;;;35.70;20.88;;;;;;;9.04;100.00;101125.06;5083336;28;20032;-93
2022/04/25 11:50:03;;;;;;;35.27;19.83;;;;;;;8.82;100.00;101123.03;5074096;28;20097;-93